createdAt,value
2016-07-25T00:00:40.401Z,24.73
2016-07-25T00:01:40.435Z,24.69
2016-07-25T00:02:40.455Z,24.69
2016-07-25T00:03:40.484Z,24.73
2016-07-25T00:04:40.508Z,24.68
2016-07-25T00:05:40.535Z,24.69
2016-07-25T00:06:40.571Z,24.74
2016-07-25T00:07:40.610Z,24.76
2016-07-25T00:08:40.613Z,24.73
2016-07-25T00:09:42.039Z,24.74
2016-07-25T00:10:40.673Z,24.74
2016-07-25T00:11:40.690Z,24.7
2016-07-25T00:12:40.731Z,24.69
2016-07-25T00:13:40.752Z,24.7
2016-07-25T00:14:40.787Z,24.69
2016-07-25T00:15:40.794Z,24.74
2016-07-25T00:16:40.873Z,24.74
2016-07-25T00:17:40.849Z,24.76
2016-07-25T00:18:40.877Z,24.7
2016-07-25T00:19:40.902Z,24.74
2016-07-25T00:20:40.934Z,24.69
2016-07-25T00:21:40.978Z,24.76
2016-07-25T00:22:40.986Z,24.74
2016-07-25T00:23:41.007Z,24.76
2016-07-25T00:24:41.735Z,24.84
2016-07-25T00:25:41.060Z,24.74
2016-07-25T00:26:41.087Z,24.68
2016-07-25T00:27:41.112Z,24.73
2016-07-25T00:28:41.138Z,24.68
2016-07-25T00:29:41.165Z,24.77
2016-07-25T00:30:41.195Z,24.7
2016-07-25T00:31:41.221Z,24.76
2016-07-25T00:32:41.243Z,24.7
2016-07-25T00:33:41.270Z,24.7
2016-07-25T00:34:41.297Z,24.76
2016-07-25T00:35:41.324Z,24.73
2016-07-25T00:36:41.351Z,24.74
2016-07-25T00:37:41.380Z,24.7
2016-07-25T00:38:41.404Z,24.65
2016-07-25T00:39:41.438Z,24.74
2016-07-25T00:40:41.456Z,24.69
2016-07-25T00:41:41.483Z,24.76
2016-07-25T00:42:41.510Z,24.73
2016-07-25T00:43:41.534Z,24.69
2016-07-25T00:44:41.561Z,24.68
2016-07-25T00:45:41.589Z,24.69
2016-07-25T00:46:41.628Z,24.73
2016-07-25T00:47:41.656Z,24.68
2016-07-25T00:48:41.666Z,24.69
2016-07-25T00:49:41.692Z,24.74
2016-07-25T00:50:41.718Z,24.69
2016-07-25T00:51:42.451Z,24.73
2016-07-25T00:52:41.772Z,24.69
2016-07-25T00:53:41.815Z,24.68
2016-07-25T00:54:41.848Z,24.69
2016-07-25T00:55:41.851Z,24.66
2016-07-25T00:56:41.878Z,24.68
2016-07-25T00:57:41.903Z,24.65
2016-07-25T00:58:41.928Z,24.63
2016-07-25T00:59:41.957Z,24.74
2016-07-25T01:00:41.983Z,24.69
2016-07-25T01:01:42.009Z,24.58
2016-07-25T01:02:42.042Z,24.58
2016-07-25T01:03:42.065Z,24.65
2016-07-25T01:04:42.095Z,24.65
2016-07-25T01:05:42.114Z,24.69
2016-07-25T01:06:42.147Z,24.73
2016-07-25T01:07:42.167Z,24.73
2016-07-25T01:08:42.194Z,24.69
2016-07-25T01:09:42.220Z,24.68
2016-07-25T01:10:42.249Z,24.74
2016-07-25T01:11:42.273Z,24.65
2016-07-25T01:12:42.299Z,24.74
2016-07-25T01:13:42.326Z,24.73
2016-07-25T01:14:42.352Z,24.65
2016-07-25T01:15:42.379Z,24.63
2016-07-25T01:16:42.452Z,24.6
2016-07-25T01:17:42.430Z,24.7
2016-07-25T01:18:42.460Z,24.7
2016-07-25T01:19:42.480Z,24.74
2016-07-25T01:20:42.508Z,24.63
2016-07-25T01:21:42.548Z,24.78
2016-07-25T01:22:42.564Z,24.6
2016-07-25T01:23:43.296Z,24.57
2016-07-25T01:24:42.613Z,24.68
2016-07-25T01:25:42.649Z,24.65
2016-07-25T01:26:42.683Z,24.73
2016-07-25T01:27:42.690Z,24.54
2016-07-25T01:28:42.719Z,24.68
2016-07-25T01:29:42.744Z,24.66
2016-07-25T01:30:42.771Z,24.68
2016-07-25T01:31:42.795Z,24.53
2016-07-25T01:32:42.836Z,24.65
2016-07-25T01:33:42.870Z,24.74
2016-07-25T01:34:42.875Z,24.65
2016-07-25T01:35:42.900Z,24.68
2016-07-25T01:36:42.930Z,24.69
2016-07-25T01:37:42.958Z,24.68
2016-07-25T01:38:42.978Z,24.66
2016-07-25T01:39:43.008Z,24.66
2016-07-25T01:40:43.038Z,24.63
2016-07-25T01:41:43.059Z,24.73
2016-07-25T01:42:43.090Z,24.66
2016-07-25T01:43:43.114Z,24.68
2016-07-25T01:44:43.138Z,24.65
2016-07-25T01:45:43.179Z,24.7
2016-07-25T01:46:43.192Z,24.54
2016-07-25T01:47:43.220Z,24.68
2016-07-25T01:48:43.246Z,24.66
2016-07-25T01:49:43.279Z,24.58
2016-07-25T01:50:43.297Z,24.57
2016-07-25T01:51:43.325Z,24.66
2016-07-25T01:52:43.351Z,24.66
2016-07-25T01:53:43.373Z,24.63
2016-07-25T01:54:43.404Z,24.6
2016-07-25T01:55:43.429Z,24.63
2016-07-25T01:56:43.457Z,24.69
2016-07-25T01:57:43.490Z,24.66
2016-07-25T01:58:43.519Z,24.53
2016-07-25T01:59:43.532Z,24.69
2016-07-25T02:00:43.562Z,24.63
2016-07-25T02:01:43.584Z,24.63
2016-07-25T02:02:43.615Z,24.76
2016-07-25T02:03:43.643Z,24.58
2016-07-25T02:04:43.681Z,24.58
2016-07-25T02:05:43.709Z,24.76
2016-07-25T02:06:43.742Z,24.73
2016-07-25T02:07:43.745Z,24.57
2016-07-25T02:08:43.772Z,24.69
2016-07-25T02:09:43.799Z,24.58
2016-07-25T02:10:43.824Z,24.58
2016-07-25T02:11:43.858Z,24.73
2016-07-25T02:12:43.897Z,24.74
2016-07-25T02:13:44.603Z,24.7
2016-07-25T02:14:43.929Z,24.7
2016-07-25T02:15:43.958Z,24.74
2016-07-25T02:16:43.981Z,24.54
2016-07-25T02:17:44.009Z,24.69
2016-07-25T02:18:44.035Z,24.76
2016-07-25T02:19:44.062Z,24.58
2016-07-25T02:20:44.088Z,24.65
2016-07-25T02:21:44.817Z,24.69
2016-07-25T02:22:44.141Z,24.69
2016-07-25T02:23:44.169Z,24.74
2016-07-25T02:24:44.207Z,24.63
2016-07-25T02:25:44.222Z,24.68
2016-07-25T02:26:44.248Z,24.65
2016-07-25T02:27:44.274Z,24.68
2016-07-25T02:28:44.999Z,24.66
2016-07-25T02:29:44.334Z,24.61
2016-07-25T02:30:44.352Z,24.65
2016-07-25T02:31:44.378Z,24.61
2016-07-25T02:32:44.403Z,24.6
2016-07-25T02:33:44.431Z,24.69
2016-07-25T02:34:44.456Z,24.66
2016-07-25T02:35:44.487Z,24.73
2016-07-25T02:36:44.512Z,24.65
2016-07-25T02:37:44.546Z,24.69
2016-07-25T02:38:44.563Z,24.58
2016-07-25T02:39:45.295Z,24.66
2016-07-25T02:40:44.618Z,24.65
2016-07-25T02:41:44.640Z,24.68
2016-07-25T02:42:44.668Z,24.7
2016-07-25T02:43:44.699Z,24.58
2016-07-25T02:44:44.747Z,24.65
2016-07-25T02:45:44.769Z,24.68
2016-07-25T02:46:44.779Z,24.68
2016-07-25T02:47:44.798Z,24.63
2016-07-25T02:48:44.826Z,24.61
2016-07-25T02:49:44.852Z,24.57
2016-07-25T02:50:44.877Z,24.63
2016-07-25T02:51:44.923Z,24.69
2016-07-25T02:52:44.930Z,24.65
2016-07-25T02:53:44.956Z,24.53
2016-07-25T02:54:44.983Z,24.65
2016-07-25T02:55:45.008Z,24.57
2016-07-25T02:56:45.045Z,24.6
2016-07-25T02:57:45.062Z,24.63
2016-07-25T02:58:45.087Z,24.73
2016-07-25T02:59:45.124Z,24.63
2016-07-25T03:00:45.140Z,24.58
2016-07-25T03:01:45.172Z,24.66
2016-07-25T03:02:45.192Z,24.65
2016-07-25T03:03:45.222Z,24.53
2016-07-25T03:04:45.246Z,24.58
2016-07-25T03:05:45.272Z,24.66
2016-07-25T03:06:45.307Z,24.57
2016-07-25T03:07:45.337Z,24.61
2016-07-25T03:08:45.362Z,24.57
2016-07-25T03:09:45.380Z,24.68
2016-07-25T03:10:45.404Z,24.58
2016-07-25T03:11:45.441Z,24.7
2016-07-25T03:12:45.457Z,24.66
2016-07-25T03:13:45.481Z,24.55
2016-07-25T03:14:45.508Z,24.58
2016-07-25T03:15:45.538Z,24.55
2016-07-25T03:16:45.582Z,24.65
2016-07-25T03:17:45.605Z,24.61
2016-07-25T03:18:45.619Z,24.55
2016-07-25T03:19:45.642Z,24.66
2016-07-25T03:20:45.665Z,24.65
2016-07-25T03:21:45.694Z,24.61
2016-07-25T03:22:45.731Z,24.6
2016-07-25T03:23:45.762Z,24.57
2016-07-25T03:24:45.800Z,24.55
2016-07-25T03:25:45.799Z,24.55
2016-07-25T03:26:45.825Z,24.66
2016-07-25T03:27:45.852Z,24.57
2016-07-25T03:28:45.877Z,24.6
2016-07-25T03:29:45.905Z,24.54
2016-07-25T03:30:45.932Z,24.55
2016-07-25T03:31:46.653Z,24.58
2016-07-25T03:32:46.682Z,24.55
2016-07-25T03:33:46.010Z,24.55
2016-07-25T03:34:46.036Z,24.54
2016-07-25T03:35:46.063Z,24.58
2016-07-25T03:36:46.090Z,24.57
2016-07-25T03:37:46.115Z,24.61
2016-07-25T03:38:46.138Z,24.58
2016-07-25T03:39:46.865Z,24.54
2016-07-25T03:40:46.194Z,24.63
2016-07-25T03:41:46.220Z,24.6
2016-07-25T03:42:46.244Z,24.73
2016-07-25T03:43:46.271Z,24.7
2016-07-25T03:44:46.298Z,24.63
2016-07-25T03:45:46.324Z,24.55
2016-07-25T03:46:46.354Z,24.53
2016-07-25T03:47:46.384Z,24.61
2016-07-25T03:48:46.415Z,24.6
2016-07-25T03:49:46.428Z,24.63
2016-07-25T03:50:46.455Z,24.61
2016-07-25T03:51:46.484Z,24.54
2016-07-25T03:52:46.510Z,24.6
2016-07-25T03:53:46.534Z,24.63
2016-07-25T03:54:46.561Z,24.57
2016-07-25T03:55:46.597Z,24.61
2016-07-25T03:56:46.631Z,24.61
2016-07-25T03:57:46.640Z,24.54
2016-07-25T03:58:46.665Z,24.65
2016-07-25T03:59:46.693Z,24.61
2016-07-25T04:00:46.719Z,24.63
2016-07-25T04:01:46.745Z,24.55
2016-07-25T04:02:46.787Z,24.61
2016-07-25T04:03:46.823Z,24.57
2016-07-25T04:04:46.825Z,24.63
2016-07-25T04:05:46.850Z,24.6
2016-07-25T04:06:46.877Z,24.65
2016-07-25T04:07:46.901Z,24.63
2016-07-25T04:08:46.928Z,24.66
2016-07-25T04:09:46.955Z,24.69
2016-07-25T04:10:46.979Z,24.63
2016-07-25T04:11:47.007Z,24.74
2016-07-25T04:12:47.033Z,24.58
2016-07-25T04:13:47.058Z,24.66
2016-07-25T04:14:47.088Z,24.65
2016-07-25T04:15:47.112Z,24.74
2016-07-25T04:16:47.138Z,24.6
2016-07-25T04:17:47.175Z,24.65
2016-07-25T04:18:47.191Z,24.74
2016-07-25T04:19:47.231Z,24.68
2016-07-25T04:20:47.245Z,24.66
2016-07-25T04:21:47.968Z,24.65
2016-07-25T04:22:47.296Z,24.73
2016-07-25T04:23:47.322Z,24.76
2016-07-25T04:24:47.349Z,24.69
2016-07-25T04:25:47.375Z,24.78
2016-07-25T04:26:47.400Z,24.78
2016-07-25T04:27:47.431Z,24.7
2016-07-25T04:28:47.471Z,24.77
2016-07-25T04:29:47.479Z,24.76
2016-07-25T04:30:47.507Z,24.77
2016-07-25T04:31:47.532Z,24.8
2016-07-25T04:32:47.575Z,24.77
2016-07-25T04:33:47.588Z,24.8
2016-07-25T04:34:47.621Z,24.78
2016-07-25T04:35:47.655Z,24.8
2016-07-25T04:36:48.366Z,24.76
2016-07-25T04:37:47.690Z,24.84
2016-07-25T04:38:47.718Z,24.78
2016-07-25T04:39:47.743Z,24.8
2016-07-25T04:40:47.772Z,24.85
2016-07-25T04:41:47.796Z,24.85
2016-07-25T04:42:47.848Z,24.85
2016-07-25T04:43:48.552Z,24.85
2016-07-25T04:44:47.875Z,24.84
2016-07-25T04:45:47.904Z,24.89
2016-07-25T04:46:47.929Z,24.88
2016-07-25T04:47:47.961Z,24.92
2016-07-25T04:48:47.981Z,24.91
2016-07-25T04:49:48.010Z,24.92
2016-07-25T04:50:48.038Z,24.88
2016-07-25T04:51:48.760Z,24.91
2016-07-25T04:52:48.086Z,24.92
2016-07-25T04:53:48.115Z,25.07
2016-07-25T04:54:48.141Z,25.03
2016-07-25T04:55:48.167Z,25.07
2016-07-25T04:56:48.191Z,24.96
2016-07-25T04:57:48.220Z,25.01
2016-07-25T04:58:48.944Z,24.99
2016-07-25T04:59:48.273Z,25.1
2016-07-25T05:00:48.296Z,25.03
2016-07-25T05:01:48.326Z,25.08
2016-07-25T05:02:48.346Z,25.18
2016-07-25T05:03:48.378Z,25.07
2016-07-25T05:04:48.403Z,25.11
2016-07-25T05:05:48.433Z,25.07
2016-07-25T05:06:48.459Z,25.1
2016-07-25T05:07:48.493Z,25.11
2016-07-25T05:08:48.527Z,25.14
2016-07-25T05:09:48.537Z,25.22
2016-07-25T05:10:48.564Z,25.18
2016-07-25T05:11:48.589Z,25.18
2016-07-25T05:12:48.616Z,25.25
2016-07-25T05:13:48.649Z,25.29
2016-07-25T05:14:48.681Z,25.18
2016-07-25T05:15:48.691Z,25.17
2016-07-25T05:16:48.741Z,25.18
2016-07-25T05:17:48.745Z,25.14
2016-07-25T05:18:48.772Z,25.25
2016-07-25T05:19:48.797Z,25.25
2016-07-25T05:20:48.826Z,25.21
2016-07-25T05:21:48.872Z,25.21
2016-07-25T05:22:48.878Z,25.18
2016-07-25T05:23:48.905Z,25.18
2016-07-25T05:24:48.939Z,25.21
2016-07-25T05:25:48.955Z,25.18
2016-07-25T05:26:48.986Z,25.35
2016-07-25T05:27:49.014Z,25.29
2016-07-25T05:28:49.042Z,25.29
2016-07-25T05:29:49.063Z,25.32
2016-07-25T05:30:49.090Z,25.4
2016-07-25T05:31:49.119Z,25.44
2016-07-25T05:32:49.143Z,25.5
2016-07-25T05:33:49.167Z,25.47
2016-07-25T05:34:49.198Z,25.4
2016-07-25T05:35:49.221Z,25.35
2016-07-25T05:36:49.258Z,25.32
2016-07-25T05:37:49.279Z,25.29
2016-07-25T05:38:49.308Z,25.32
2016-07-25T05:39:49.328Z,25.38
2016-07-25T05:40:49.357Z,25.44
2016-07-25T05:41:49.380Z,25.51
2016-07-25T05:42:49.413Z,25.46
2016-07-25T05:43:49.432Z,25.43
2016-07-25T05:44:49.463Z,25.35
2016-07-25T05:45:49.485Z,25.38
2016-07-25T05:46:49.518Z,25.36
2016-07-25T05:47:49.551Z,25.4
2016-07-25T05:48:49.569Z,25.38
2016-07-25T05:49:49.591Z,25.33
2016-07-25T05:50:49.619Z,25.33
2016-07-25T05:51:49.642Z,25.46
2016-07-25T05:52:49.674Z,25.43
2016-07-25T05:53:50.409Z,25.43
2016-07-25T05:54:49.740Z,25.4
2016-07-25T05:55:50.451Z,25.4
2016-07-25T05:56:49.779Z,25.65
2016-07-25T05:57:49.806Z,25.53
2016-07-25T05:58:49.836Z,25.47
2016-07-25T05:59:49.857Z,25.46
2016-07-25T06:00:49.880Z,25.46
2016-07-25T06:01:49.931Z,25.41
2016-07-25T06:02:50.632Z,25.43
2016-07-25T06:03:49.963Z,25.4
2016-07-25T06:04:50.698Z,25.5
2016-07-25T06:05:50.016Z,25.47
2016-07-25T06:06:50.063Z,25.47
2016-07-25T06:07:50.071Z,25.51
2016-07-25T06:08:50.092Z,25.46
2016-07-25T06:09:50.123Z,25.48
2016-07-25T06:10:50.150Z,25.48
2016-07-25T06:11:50.176Z,25.51
2016-07-25T06:12:50.199Z,25.48
2016-07-25T06:13:50.230Z,25.62
2016-07-25T06:14:50.253Z,25.41
2016-07-25T06:15:50.282Z,25.51
2016-07-25T06:16:50.306Z,25.59
2016-07-25T06:17:50.336Z,25.62
2016-07-25T06:18:50.366Z,25.59
2016-07-25T06:19:50.387Z,25.55
2016-07-25T06:20:50.414Z,25.53
2016-07-25T06:21:50.440Z,25.59
2016-07-25T06:22:50.468Z,25.63
2016-07-25T06:23:50.493Z,25.68
2016-07-25T06:24:50.528Z,25.66
2016-07-25T06:25:50.546Z,25.59
2016-07-25T06:26:50.579Z,25.68
2016-07-25T06:27:50.598Z,25.6
2016-07-25T06:28:50.627Z,25.58
2016-07-25T06:29:50.656Z,25.55
2016-07-25T06:30:50.675Z,25.43
2016-07-25T06:31:50.701Z,25.31
2016-07-25T06:33:50.770Z,24.84
2016-07-25T06:34:51.496Z,24.57
2016-07-25T06:35:50.806Z,24.53
2016-07-25T06:36:50.826Z,24.35
2016-07-25T06:37:51.553Z,24.26
2016-07-25T06:38:50.879Z,24.13
2016-07-25T06:39:50.904Z,24.13
2016-07-25T06:40:50.929Z,24.05
2016-07-25T06:41:50.957Z,23.99
2016-07-25T06:42:50.985Z,23.81
2016-07-25T06:43:51.704Z,23.83
2016-07-25T06:44:51.034Z,23.71
2016-07-25T06:45:51.054Z,23.66
2016-07-25T06:46:51.084Z,23.59
2016-07-25T06:47:51.109Z,23.48
2016-07-25T06:48:51.136Z,23.41
2016-07-25T06:49:51.154Z,23.34
2016-07-25T06:50:51.191Z,23.27
2016-07-25T06:51:51.206Z,23.23
2016-07-25T06:52:51.227Z,23.18
2016-07-25T06:53:51.255Z,23.18
2016-07-25T06:54:51.280Z,23.31
2016-07-25T06:55:51.314Z,23.27
2016-07-25T06:56:51.346Z,23.17
2016-07-25T06:57:52.049Z,23.12
2016-07-25T06:58:51.379Z,23.2
2016-07-25T06:59:51.402Z,22.94
2016-07-25T07:00:52.140Z,22.83
2016-07-25T07:01:51.448Z,22.87
2016-07-25T07:02:51.476Z,23.02
2016-07-25T07:03:51.502Z,22.96
2016-07-25T07:04:51.526Z,23.05
2016-07-25T07:05:51.547Z,23.05
2016-07-25T07:06:51.568Z,23.15
2016-07-25T07:07:51.591Z,23.1
2016-07-25T07:08:52.316Z,23.21
2016-07-25T07:09:52.339Z,23.15
2016-07-25T07:10:51.663Z,23.15
2016-07-25T07:11:51.698Z,23.13
2016-07-25T07:12:51.736Z,22.96
2016-07-25T07:13:51.737Z,22.91
2016-07-25T07:14:51.761Z,23.02
2016-07-25T07:15:51.792Z,22.96
2016-07-25T07:16:51.805Z,22.66
2016-07-25T07:17:51.833Z,22.78
2016-07-25T07:18:51.860Z,22.87
2016-07-25T07:19:51.882Z,22.9
2016-07-25T07:20:51.902Z,22.84
2016-07-25T07:21:51.934Z,22.66
2016-07-25T07:22:51.953Z,22.73
2016-07-25T07:23:51.977Z,22.69
2016-07-25T07:24:52.031Z,22.81
2016-07-25T07:25:52.042Z,22.85
2016-07-25T07:26:53.455Z,22.84
2016-07-25T07:27:52.089Z,22.88
2016-07-25T07:28:52.091Z,22.96
2016-07-25T07:29:52.113Z,22.93
2016-07-25T07:30:52.840Z,22.93
2016-07-25T07:31:52.158Z,22.9
2016-07-25T07:32:52.181Z,22.91
2016-07-25T07:33:52.202Z,22.99
2016-07-25T07:34:52.229Z,22.87
2016-07-25T07:35:52.254Z,22.85
2016-07-25T07:36:52.287Z,22.87
2016-07-25T07:37:52.294Z,22.84
2016-07-25T07:38:52.314Z,22.83
2016-07-25T07:39:52.337Z,22.84
2016-07-25T07:40:52.359Z,22.85
2016-07-25T07:41:52.396Z,22.84
2016-07-25T07:42:53.226Z,22.65
2016-07-25T07:43:53.170Z,22.59
2016-07-25T07:44:52.457Z,22.43
2016-07-25T07:45:52.470Z,22.35
2016-07-25T07:46:52.496Z,22.36
2016-07-25T07:47:52.516Z,22.39
2016-07-25T07:48:52.540Z,22.45
2016-07-25T07:49:52.578Z,22.3
2016-07-25T07:50:52.608Z,22.29
2016-07-25T07:51:52.611Z,22.32
2016-07-25T07:52:52.632Z,22.35
2016-07-25T07:53:52.669Z,22.47
2016-07-25T07:54:52.676Z,22.48
2016-07-25T07:55:52.701Z,22.54
2016-07-25T07:56:53.429Z,22.62
2016-07-25T07:57:52.791Z,22.38
2016-07-25T07:58:52.803Z,22.54
2016-07-25T07:59:52.818Z,22.5
2016-07-25T08:00:52.819Z,22.73
2016-07-25T08:01:52.840Z,23.32
2016-07-25T08:02:52.865Z,23.39
2016-07-25T08:03:53.638Z,23.15
2016-07-25T08:04:52.914Z,22.99
2016-07-25T08:05:52.930Z,22.9
2016-07-25T08:06:52.973Z,22.93
2016-07-25T08:07:52.984Z,22.94
2016-07-25T08:08:53.697Z,23.05
2016-07-25T08:09:53.029Z,23.09
2016-07-25T08:10:53.050Z,23.13
2016-07-25T08:11:53.072Z,23.2
2016-07-25T08:12:53.094Z,23.2
2016-07-25T08:13:53.129Z,23.23
2016-07-25T08:14:53.861Z,23.25
2016-07-25T08:15:53.163Z,23.32
2016-07-25T08:16:53.186Z,23.36
2016-07-25T08:17:53.208Z,23.48
2016-07-25T08:18:53.935Z,23.47
2016-07-25T08:19:53.257Z,23.51
2016-07-25T08:20:53.280Z,23.61
2016-07-25T08:21:53.307Z,23.62
2016-07-25T08:22:53.460Z,23.71
2016-07-25T08:23:54.055Z,23.87
2016-07-25T08:24:53.376Z,23.88
2016-07-25T08:25:53.401Z,23.93
2016-07-25T08:26:53.428Z,23.86
2016-07-25T08:27:53.448Z,23.88
2016-07-25T08:28:53.526Z,23.96
2016-07-25T08:29:53.513Z,24.06
2016-07-25T08:30:54.233Z,24.17
2016-07-25T08:31:53.540Z,24.11
2016-07-25T08:32:53.569Z,24.21
2016-07-25T08:33:53.591Z,24.29
2016-07-25T08:34:53.615Z,24.33
2016-07-25T08:35:53.637Z,24.39
2016-07-25T08:36:53.666Z,24.39
2016-07-25T08:37:53.696Z,24.57
2016-07-25T08:38:59.615Z,24.73
2016-07-25T08:39:59.637Z,24.89
2016-07-25T08:40:59.664Z,24.95
2016-07-25T08:41:59.685Z,25.07
2016-07-25T08:42:59.738Z,25.21
2016-07-25T08:44:01.164Z,25.44
2016-07-25T08:44:59.772Z,25.55
2016-07-25T08:45:59.797Z,25.63
2016-07-25T08:46:59.816Z,25.7
2016-07-25T08:47:59.860Z,25.75
2016-07-25T08:48:59.865Z,25.78
2016-07-25T08:49:59.905Z,25.8
2016-07-25T08:51:00.662Z,25.85
2016-07-25T08:51:59.951Z,25.9
2016-07-25T08:52:59.987Z,25.98
2016-07-25T08:54:00.693Z,26
2016-07-25T08:55:00.021Z,26.05
2016-07-25T08:56:00.048Z,26.19
2016-07-25T08:57:00.071Z,26.13
2016-07-25T08:58:00.097Z,26.26
2016-07-25T08:59:00.123Z,26.22
2016-07-25T09:00:00.157Z,26.26
2016-07-25T09:01:00.875Z,26.36
2016-07-25T09:02:00.208Z,26.43
2016-07-25T09:03:00.944Z,26.41
2016-07-25T09:04:00.257Z,26.45
2016-07-25T09:05:00.282Z,26.45
2016-07-25T09:06:00.310Z,26.58
2016-07-25T09:07:00.336Z,26.59
2016-07-25T09:08:00.364Z,26.62
2016-07-25T09:09:01.090Z,26.58
2016-07-25T09:10:00.422Z,26.62
2016-07-25T09:11:00.443Z,26.56
2016-07-25T09:12:01.180Z,26.55
2016-07-25T09:13:00.494Z,26.59
2016-07-25T09:14:00.528Z,26.62
2016-07-25T09:15:00.548Z,26.71
2016-07-25T09:16:00.587Z,26.55
2016-07-25T09:17:00.601Z,26.73
2016-07-25T09:18:00.637Z,26.62
2016-07-25T09:19:00.653Z,26.58
2016-07-25T09:20:00.697Z,26.58
2016-07-25T09:21:00.710Z,26.44
2016-07-25T09:22:01.434Z,26.29
2016-07-25T09:23:00.764Z,26.19
2016-07-25T09:24:00.787Z,26.16
2016-07-25T09:25:00.822Z,26.16
2016-07-25T09:26:00.840Z,26.18
2016-07-25T09:27:00.870Z,26.18
2016-07-25T09:28:01.603Z,26.15
2016-07-25T09:29:00.924Z,26.1
2016-07-25T09:30:00.956Z,26.13
2016-07-25T09:31:00.986Z,26.13
2016-07-25T09:32:01.011Z,26.18
2016-07-25T09:33:01.052Z,26.09
2016-07-25T09:34:01.058Z,26.03
2016-07-25T09:35:01.086Z,26.06
2016-07-25T09:36:01.114Z,25.93
2016-07-25T09:37:01.140Z,25.96
2016-07-25T09:38:01.865Z,25.83
2016-07-25T09:39:01.202Z,25.78
2016-07-25T09:40:01.235Z,25.69
2016-07-25T09:41:01.270Z,25.68
2016-07-25T09:42:01.272Z,25.66
2016-07-25T09:43:01.299Z,25.55
2016-07-25T09:44:01.326Z,25.55
2016-07-25T09:45:02.052Z,25.44
2016-07-25T09:46:01.379Z,25.38
2016-07-25T09:47:01.426Z,25.29
2016-07-25T09:48:01.437Z,25.21
